Time;durP1;ratioP1;P1;durP2;ratioP2;P2;SDS_P1;SDS_P2;PMS_P1;PMS_P2;Temp;Humidity;BMP_temperature;BMP_pressure;BME280_temperature;BME280_humidity;BME280_pressure;Samples;Min_cycle;Max_cycle;Signal;HPM_P1;HPM_P2
2024/03/11 00:02:27;;;;;;;1999.90;999.90;;;;;;;;;;6122870;23;20504;-85
2024/03/11 00:04:54;;;;;;;1999.90;999.90;;;;;;;;;;6121791;23;20034;-86
2024/03/11 00:07:20;;;;;;;1999.90;999.90;;;;;;;;;;6123926;23;20030;-85
2024/03/11 00:09:48;;;;;;;1999.90;999.90;;;;;;;;;;6123212;23;20022;-86
2024/03/11 00:12:17;;;;;;;1999.90;999.90;;;;;;;;;;6123051;23;20030;-86
2024/03/11 00:14:47;;;;;;;1999.90;999.90;;;;;;;;;;6123397;23;20049;-87
2024/03/11 00:17:15;;;;;;;1999.90;999.90;;;;;;;;;;6123590;23;20026;-87
2024/03/11 00:19:42;;;;;;;1999.90;999.90;;;;;;;;;;6123551;23;20029;-86
2024/03/11 00:22:08;;;;;;;1999.90;999.90;;;;;;;;;;6122918;23;20124;-86
2024/03/11 00:24:35;;;;;;;1999.90;999.90;;;;;;;;;;6122860;23;20030;-87
2024/03/11 00:27:03;;;;;;;1999.90;999.90;;;;;;;;;;6123400;23;20022;-86
2024/03/11 00:29:30;;;;;;;1999.90;999.90;;;;;;;;;;6122467;23;20022;-86
2024/03/11 00:31:57;;;;;;;1999.90;999.90;;;;;;;;;;6122979;23;20445;-86
2024/03/11 00:34:26;;;;;;;1999.90;999.90;;;;;;;;;;6122812;23;20026;-86
2024/03/11 00:36:52;;;;;;;1999.90;999.90;;;;;;;;;;6123113;23;20018;-86
2024/03/11 00:39:20;;;;;;;1999.90;999.90;;;;;;;;;;6123017;23;20132;-86
2024/03/11 00:41:47;;;;;;;1999.90;999.90;;;;;;;;;;6122487;23;20030;-87
2024/03/11 00:44:14;;;;;;;1999.90;999.90;;;;;;;;;;6123544;23;20064;-86
2024/03/11 00:46:41;;;;;;;1999.90;999.90;;;;;;;;;;6123609;23;20034;-86
2024/03/11 00:49:09;;;;;;;1999.90;999.90;;;;;;;;;;6122992;23;20329;-86
2024/03/11 00:51:37;;;;;;;1999.90;999.90;;;;;;;;;;6122562;23;20030;-86
2024/03/11 00:54:06;;;;;;;1999.90;999.90;;;;;;;;;;6122894;23;20028;-86
2024/03/11 00:56:33;;;;;;;1999.90;999.90;;;;;;;;;;6122116;23;20030;-86
2024/03/11 00:58:59;;;;;;;1999.90;999.90;;;;;;;;;;6122940;23;20109;-85
2024/03/11 01:01:26;;;;;;;1999.90;999.90;;;;;;;;;;6122880;23;20026;-86
2024/03/11 01:03:53;;;;;;;1999.90;999.90;;;;;;;;;;6123631;23;20464;-86
2024/03/11 01:06:20;;;;;;;1999.90;999.90;;;;;;;;;;6123493;23;20026;-85
2024/03/11 01:08:48;;;;;;;1999.90;999.90;;;;;;;;;;6123198;23;20026;-86
2024/03/11 01:11:14;;;;;;;1999.90;999.90;;;;;;;;;;6123400;23;20022;-86
2024/03/11 01:13:41;;;;;;;1999.90;999.90;;;;;;;;;;6123723;23;20410;-86
2024/03/11 01:16:08;;;;;;;1999.90;999.90;;;;;;;;;;6123573;23;20033;-86
2024/03/11 01:18:34;;;;;;;1999.90;999.90;;;;;;;;;;6123205;23;20028;-85
2024/03/11 01:21:02;;;;;;;1999.90;999.90;;;;;;;;;;6122665;23;20471;-86
2024/03/11 01:23:28;;;;;;;1999.90;999.90;;;;;;;;;;6123164;23;20026;-87
2024/03/11 01:25:57;;;;;;;1999.90;999.90;;;;;;;;;;6123241;23;20026;-86
2024/03/11 01:28:23;;;;;;;1999.90;999.90;;;;;;;;;;6123334;23;20457;-86
2024/03/11 01:30:50;;;;;;;1999.90;999.90;;;;;;;;;;6122503;23;20028;-86
2024/03/11 01:33:21;;;;;;;1999.90;999.90;;;;;;;;;;6122973;23;20022;-86
2024/03/11 01:35:48;;;;;;;1999.90;999.90;;;;;;;;;;6122526;23;20022;-86
2024/03/11 01:38:16;;;;;;;1999.90;999.90;;;;;;;;;;6122574;23;20022;-87
2024/03/11 01:40:43;;;;;;;1999.90;999.90;;;;;;;;;;6122801;23;20018;-86
2024/03/11 01:43:11;;;;;;;1999.90;999.90;;;;;;;;;;6122424;23;20026;-86
2024/03/11 01:45:38;;;;;;;1999.90;999.90;;;;;;;;;;6122663;23;20460;-86
2024/03/11 01:48:05;;;;;;;1999.90;999.90;;;;;;;;;;6122931;23;20073;-86
2024/03/11 01:50:32;;;;;;;1999.90;999.90;;;;;;;;;;6122367;23;20096;-86
2024/03/11 01:53:03;;;;;;;1999.90;999.90;;;;;;;;;;6122680;23;20112;-86
2024/03/11 01:55:31;;;;;;;1999.90;999.90;;;;;;;;;;6123673;23;20026;-86
2024/03/11 01:58:00;;;;;;;1999.90;999.90;;;;;;;;;;6123204;23;20022;-86
2024/03/11 02:00:28;;;;;;;1999.90;999.90;;;;;;;;;;6123034;23;20093;-86
2024/03/11 02:02:55;;;;;;;1999.90;999.90;;;;;;;;;;6122477;23;20030;-86
2024/03/11 02:05:24;;;;;;;1999.90;999.90;;;;;;;;;;6122306;23;20022;-86
2024/03/11 02:07:54;;;;;;;1999.90;999.90;;;;;;;;;;6121995;23;20026;-86
2024/03/11 02:10:20;;;;;;;1999.90;999.90;;;;;;;;;;6122525;23;20093;-86
2024/03/11 02:12:47;;;;;;;1999.90;999.90;;;;;;;;;;6122790;23;20021;-86
2024/03/11 02:15:14;;;;;;;1999.90;999.90;;;;;;;;;;6123460;23;20025;-86
2024/03/11 02:17:43;;;;;;;1999.90;999.90;;;;;;;;;;6122519;23;20464;-86
2024/03/11 02:20:15;;;;;;;1999.90;999.90;;;;;;;;;;6121967;23;20030;-86
2024/03/11 02:22:45;;;;;;;1999.90;999.90;;;;;;;;;;6122620;23;20026;-86
2024/03/11 02:25:14;;;;;;;1999.90;999.90;;;;;;;;;;6122954;23;20027;-87
2024/03/11 02:27:41;;;;;;;1999.90;999.90;;;;;;;;;;6123057;23;20056;-86
2024/03/11 02:30:08;;;;;;;1999.90;999.90;;;;;;;;;;6123402;23;20116;-85
2024/03/11 02:32:35;;;;;;;1999.90;999.90;;;;;;;;;;6122701;23;20029;-86
2024/03/11 02:35:02;;;;;;;1999.90;999.90;;;;;;;;;;6123031;23;20026;-86
2024/03/11 02:37:29;;;;;;;1999.90;999.90;;;;;;;;;;6122132;23;20026;-86
2024/03/11 02:39:56;;;;;;;1999.90;999.90;;;;;;;;;;6122423;23;20078;-86
2024/03/11 02:42:25;;;;;;;1999.90;999.90;;;;;;;;;;6123059;23;20021;-86
2024/03/11 02:44:51;;;;;;;1999.90;999.90;;;;;;;;;;6123510;23;20022;-86
2024/03/11 02:47:18;;;;;;;1999.90;999.90;;;;;;;;;;6123034;23;20028;-86
2024/03/11 02:49:45;;;;;;;1999.90;999.90;;;;;;;;;;6122795;23;20026;-85
2024/03/11 02:52:11;;;;;;;1999.90;999.90;;;;;;;;;;6122948;23;20448;-86
2024/03/11 02:54:38;;;;;;;1999.90;999.90;;;;;;;;;;6123017;23;20105;-87
2024/03/11 02:57:05;;;;;;;1999.90;999.90;;;;;;;;;;6121699;23;20445;-86
2024/03/11 02:59:33;;;;;;;1999.90;999.90;;;;;;;;;;6122843;23;20029;-86
2024/03/11 03:02:00;;;;;;;1999.90;999.90;;;;;;;;;;6122902;23;20416;-86
2024/03/11 03:04:26;;;;;;;1999.90;999.90;;;;;;;;;;6123023;23;20037;-86
2024/03/11 03:06:57;;;;;;;1999.90;999.90;;;;;;;;;;6122929;23;20026;-86
2024/03/11 03:09:24;;;;;;;1999.90;999.90;;;;;;;;;;6122462;23;20029;-86
2024/03/11 03:11:50;;;;;;;1999.90;999.90;;;;;;;;;;6122821;23;20022;-86
2024/03/11 03:14:17;;;;;;;1999.90;999.90;;;;;;;;;;6123010;23;20027;-86
2024/03/11 03:16:45;;;;;;;1999.90;999.90;;;;;;;;;;6122857;23;20046;-87
2024/03/11 03:19:12;;;;;;;1999.90;999.90;;;;;;;;;;6122041;23;20022;-86
2024/03/11 03:21:38;;;;;;;1999.90;999.90;;;;;;;;;;6126792;23;20053;-86
2024/03/11 03:24:05;;;;;;;1999.90;999.90;;;;;;;;;;6128732;23;20018;-86
2024/03/11 03:26:32;;;;;;;1999.90;999.90;;;;;;;;;;6129062;23;20339;-86
2024/03/11 03:28:59;;;;;;;1999.90;999.90;;;;;;;;;;6125253;23;20030;-86
2024/03/11 03:31:27;;;;;;;1999.90;999.90;;;;;;;;;;6123917;23;20022;-86
2024/03/11 03:33:55;;;;;;;1999.90;999.90;;;;;;;;;;6125191;23;20022;-86
2024/03/11 03:36:21;;;;;;;1999.90;999.90;;;;;;;;;;6124181;23;20025;-86
2024/03/11 03:38:48;;;;;;;1999.90;999.90;;;;;;;;;;6123972;23;20026;-87
2024/03/11 03:41:14;;;;;;;1999.90;999.90;;;;;;;;;;6124666;23;20029;-86
2024/03/11 03:43:41;;;;;;;1999.90;999.90;;;;;;;;;;6123962;23;20022;-86
2024/03/11 03:46:08;;;;;;;1999.90;999.90;;;;;;;;;;6124022;23;20026;-87
2024/03/11 03:48:35;;;;;;;1999.90;999.90;;;;;;;;;;6124282;23;20422;-87
2024/03/11 03:51:04;;;;;;;1999.90;999.90;;;;;;;;;;6123849;23;20092;-86
2024/03/11 03:53:30;;;;;;;1999.90;999.90;;;;;;;;;;6123830;23;20025;-86
2024/03/11 03:55:57;;;;;;;1999.90;999.90;;;;;;;;;;6123902;23;20032;-86
2024/03/11 03:58:24;;;;;;;1999.90;999.90;;;;;;;;;;6123670;23;20161;-85
2024/03/11 04:00:50;;;;;;;1999.90;999.90;;;;;;;;;;6123404;23;20465;-85
2024/03/11 04:03:18;;;;;;;1999.90;999.90;;;;;;;;;;6123929;23;20279;-87
2024/03/11 04:05:48;;;;;;;1999.90;999.90;;;;;;;;;;6124310;23;20018;-86
2024/03/11 04:08:16;;;;;;;1999.90;999.90;;;;;;;;;;6123977;23;20026;-85
2024/03/11 04:10:42;;;;;;;1999.90;999.90;;;;;;;;;;6124115;23;20026;-86
2024/03/11 04:13:12;;;;;;;1999.90;999.90;;;;;;;;;;6124166;23;20101;-85
2024/03/11 04:15:40;;;;;;;1999.90;999.90;;;;;;;;;;6124100;23;20026;-86
2024/03/11 04:18:07;;;;;;;1999.90;999.90;;;;;;;;;;6123683;23;20097;-85
2024/03/11 04:20:34;;;;;;;1999.90;999.90;;;;;;;;;;6123926;23;20100;-87
2024/03/11 04:23:02;;;;;;;1999.90;999.90;;;;;;;;;;6123508;23;20025;-86
2024/03/11 04:25:31;;;;;;;1999.90;999.90;;;;;;;;;;6124576;23;20433;-86
2024/03/11 04:27:59;;;;;;;1999.90;999.90;;;;;;;;;;6124093;23;20021;-85
2024/03/11 04:30:30;;;;;;;1999.90;999.90;;;;;;;;;;6123810;23;20025;-85
2024/03/11 04:32:57;;;;;;;1999.90;999.90;;;;;;;;;;6123565;23;20533;-85
2024/03/11 04:35:26;;;;;;;1999.90;999.90;;;;;;;;;;6123667;23;20023;-85
2024/03/11 04:37:52;;;;;;;1999.90;999.90;;;;;;;;;;6122415;23;20022;-85
2024/03/11 04:40:19;;;;;;;1999.90;999.90;;;;;;;;;;6123158;23;20022;-87
2024/03/11 04:42:47;;;;;;;1999.90;999.90;;;;;;;;;;6123466;23;20532;-85
2024/03/11 04:45:14;;;;;;;1999.90;999.90;;;;;;;;;;6122793;23;20082;-85
2024/03/11 04:47:41;;;;;;;1999.90;999.90;;;;;;;;;;6122754;23;20072;-85
2024/03/11 04:50:10;;;;;;;1999.90;999.90;;;;;;;;;;6122543;23;20021;-85
2024/03/11 04:52:37;;;;;;;1999.90;999.90;;;;;;;;;;6122868;23;20030;-87
2024/03/11 04:55:06;;;;;;;1999.90;999.90;;;;;;;;;;6122795;23;20024;-86
2024/03/11 04:57:32;;;;;;;1999.90;999.90;;;;;;;;;;6122595;23;20073;-85
2024/03/11 05:00:00;;;;;;;1999.90;999.90;;;;;;;;;;6123222;23;20022;-85
2024/03/11 05:02:27;;;;;;;1999.90;999.90;;;;;;;;;;6122919;23;20083;-85
2024/03/11 05:04:54;;;;;;;1999.90;999.90;;;;;;;;;;6122622;23;20456;-86
2024/03/11 05:07:21;;;;;;;1999.90;999.90;;;;;;;;;;6122313;23;20378;-85
2024/03/11 05:09:47;;;;;;;1999.90;999.90;;;;;;;;;;6122239;23;20029;-86
2024/03/11 05:12:14;;;;;;;1999.90;999.90;;;;;;;;;;6123002;23;20101;-85
2024/03/11 05:14:41;;;;;;;1999.90;999.90;;;;;;;;;;6122435;23;20357;-85
2024/03/11 05:17:08;;;;;;;1999.90;999.90;;;;;;;;;;6122422;23;20022;-85
2024/03/11 05:19:36;;;;;;;1999.90;999.90;;;;;;;;;;6122473;23;20020;-85
2024/03/11 05:22:02;;;;;;;1999.90;999.90;;;;;;;;;;6123129;23;20053;-85
2024/03/11 05:24:29;;;;;;;1999.90;999.90;;;;;;;;;;6122740;23;20029;-86
2024/03/11 05:26:55;;;;;;;1999.90;999.90;;;;;;;;;;6123322;23;20034;-85
2024/03/11 05:29:22;;;;;;;1999.90;999.90;;;;;;;;;;6123076;23;20062;-84
2024/03/11 05:31:48;;;;;;;1999.90;999.90;;;;;;;;;;6122785;23;20492;-86
2024/03/11 05:34:16;;;;;;;1999.90;999.90;;;;;;;;;;6122863;23;20330;-86
2024/03/11 05:36:43;;;;;;;1999.90;999.90;;;;;;;;;;6122815;23;20049;-87
2024/03/11 05:39:09;;;;;;;1999.90;999.90;;;;;;;;;;6123298;23;20029;-85
2024/03/11 05:41:36;;;;;;;1999.90;999.90;;;;;;;;;;6122221;23;20026;-85
2024/03/11 05:44:03;;;;;;;1999.90;999.90;;;;;;;;;;6121711;23;20053;-85
2024/03/11 05:46:30;;;;;;;1999.90;999.90;;;;;;;;;;6122596;23;20022;-86
2024/03/11 05:48:56;;;;;;;1999.90;999.90;;;;;;;;;;6121832;23;20426;-85
2024/03/11 05:51:27;;;;;;;1999.90;999.90;;;;;;;;;;6122559;23;20072;-85
2024/03/11 05:53:56;;;;;;;1999.90;999.90;;;;;;;;;;6122705;23;20084;-85
2024/03/11 05:56:23;;;;;;;1999.90;999.90;;;;;;;;;;6122996;23;20359;-85
2024/03/11 05:58:49;;;;;;;1999.90;999.90;;;;;;;;;;6122923;23;20085;-86
2024/03/11 06:01:16;;;;;;;1999.90;999.90;;;;;;;;;;6122900;23;20018;-85
2024/03/11 06:03:42;;;;;;;1999.90;999.90;;;;;;;;;;6122371;23;20029;-87
2024/03/11 06:06:09;;;;;;;1999.90;999.90;;;;;;;;;;6122806;23;20030;-84
2024/03/11 06:08:37;;;;;;;1999.90;999.90;;;;;;;;;;6121976;23;20026;-83
2024/03/11 06:11:05;;;;;;;1999.90;999.90;;;;;;;;;;6122083;23;20560;-83
2024/03/11 06:13:32;;;;;;;1999.90;999.90;;;;;;;;;;6122295;23;20022;-81
2024/03/11 06:16:00;;;;;;;1999.90;999.90;;;;;;;;;;6122169;23;20560;-82
2024/03/11 06:18:28;;;;;;;1999.90;999.90;;;;;;;;;;6121917;23;20054;-81
2024/03/11 06:20:54;;;;;;;1999.90;999.90;;;;;;;;;;6121458;23;20026;-82
2024/03/11 06:23:21;;;;;;;1999.90;999.90;;;;;;;;;;6122007;23;20076;-82
2024/03/11 06:25:49;;;;;;;1999.90;999.90;;;;;;;;;;6121769;23;20022;-83
2024/03/11 06:28:19;;;;;;;1999.90;999.90;;;;;;;;;;6121787;23;20048;-82
2024/03/11 06:30:47;;;;;;;1999.90;999.90;;;;;;;;;;6121366;23;20399;-82
2024/03/11 06:33:20;;;;;;;1999.90;999.90;;;;;;;;;;6121387;23;20026;-81
2024/03/11 06:35:47;;;;;;;1999.90;999.90;;;;;;;;;;6121673;23;20018;-83
2024/03/11 06:38:14;;;;;;;1999.90;999.90;;;;;;;;;;6121220;23;20053;-81
2024/03/11 06:40:41;;;;;;;1999.90;999.90;;;;;;;;;;6121325;23;20026;-83
2024/03/11 06:43:09;;;;;;;1999.90;999.90;;;;;;;;;;6121513;23;20025;-82
2024/03/11 06:45:35;;;;;;;1999.90;999.90;;;;;;;;;;6121355;23;20062;-81
2024/03/11 06:48:03;;;;;;;1999.90;999.90;;;;;;;;;;6121108;23;20030;-82
2024/03/11 06:50:29;;;;;;;1999.90;999.90;;;;;;;;;;6121043;23;20030;-83
2024/03/11 06:52:56;;;;;;;1999.90;999.90;;;;;;;;;;6121041;23;20467;-81
2024/03/11 06:55:22;;;;;;;1999.90;999.90;;;;;;;;;;6122530;23;20029;-82
2024/03/11 06:57:49;;;;;;;1999.90;999.90;;;;;;;;;;6123478;23;20179;-82
2024/03/11 07:00:20;;;;;;;1999.90;999.90;;;;;;;;;;6123743;23;20022;-82
2024/03/11 07:02:47;;;;;;;1999.90;999.90;;;;;;;;;;6123495;23;20457;-82
2024/03/11 07:05:14;;;;;;;1999.90;999.90;;;;;;;;;;6123143;23;20026;-82
2024/03/11 07:07:42;;;;;;;1999.90;999.90;;;;;;;;;;6123135;23;20034;-82
2024/03/11 07:10:10;;;;;;;1999.90;999.90;;;;;;;;;;6123581;23;20516;-82
2024/03/11 07:12:38;;;;;;;1999.90;999.90;;;;;;;;;;6123664;23;20026;-83
2024/03/11 07:15:06;;;;;;;1999.90;999.90;;;;;;;;;;6123331;23;20463;-83
2024/03/11 07:17:35;;;;;;;1999.90;999.90;;;;;;;;;;6122585;23;20029;-84
2024/03/11 07:20:07;;;;;;;1999.90;999.90;;;;;;;;;;6124143;23;20029;-82
2024/03/11 07:22:33;;;;;;;1999.90;999.90;;;;;;;;;;6122810;23;20037;-83
2024/03/11 07:25:00;;;;;;;1999.90;999.90;;;;;;;;;;6123220;23;20034;-83
2024/03/11 07:27:26;;;;;;;1999.90;999.90;;;;;;;;;;6123230;23;20018;-83
2024/03/11 07:29:53;;;;;;;1999.90;999.90;;;;;;;;;;6123014;23;20477;-82
2024/03/11 07:32:19;;;;;;;1999.90;999.90;;;;;;;;;;6123231;23;20034;-82
2024/03/11 07:34:50;;;;;;;1999.90;999.90;;;;;;;;;;6123018;23;20457;-83
2024/03/11 07:37:16;;;;;;;1999.90;999.90;;;;;;;;;;6123020;23;20028;-83
2024/03/11 07:39:44;;;;;;;1999.90;999.90;;;;;;;;;;6122789;23;20025;-83
2024/03/11 07:42:11;;;;;;;1999.90;999.90;;;;;;;;;;6122689;23;20022;-83
2024/03/11 07:44:37;;;;;;;1999.90;999.90;;;;;;;;;;6123280;23;20022;-82
2024/03/11 07:47:07;;;;;;;1999.90;999.90;;;;;;;;;;6122509;23;20037;-83
2024/03/11 07:49:35;;;;;;;1999.90;999.90;;;;;;;;;;6123337;23;20205;-83
2024/03/11 07:52:03;;;;;;;1999.90;999.90;;;;;;;;;;6124073;23;20056;-83
2024/03/11 07:54:30;;;;;;;1999.90;999.90;;;;;;;;;;6122994;23;20029;-83
2024/03/11 07:56:57;;;;;;;1999.90;999.90;;;;;;;;;;6123472;23;20025;-82
2024/03/11 07:59:24;;;;;;;1999.90;999.90;;;;;;;;;;6122891;23;20379;-83
2024/03/11 08:01:50;;;;;;;1999.90;999.90;;;;;;;;;;6122556;23;20032;-82
2024/03/11 08:04:17;;;;;;;1999.90;999.90;;;;;;;;;;6123197;23;20029;-83
2024/03/11 08:06:44;;;;;;;1999.90;999.90;;;;;;;;;;6122701;23;20045;-82
2024/03/11 08:09:14;;;;;;;1999.90;999.90;;;;;;;;;;6122669;23;20456;-82
2024/03/11 08:11:40;;;;;;;1999.90;999.90;;;;;;;;;;6122759;23;20535;-82
2024/03/11 08:14:08;;;;;;;1999.90;999.90;;;;;;;;;;6122716;23;20033;-83
2024/03/11 08:16:34;;;;;;;1999.90;999.90;;;;;;;;;;6122491;23;20341;-83
2024/03/11 08:19:01;;;;;;;1999.90;999.90;;;;;;;;;;6122162;23;20361;-83
2024/03/11 08:21:27;;;;;;;1999.90;999.90;;;;;;;;;;6122486;23;20029;-83
2024/03/11 08:23:54;;;;;;;1999.90;999.90;;;;;;;;;;6121988;23;20483;-82
2024/03/11 08:26:24;;;;;;;1999.90;999.90;;;;;;;;;;6122502;23;20093;-83
2024/03/11 08:28:50;;;;;;;1999.90;999.90;;;;;;;;;;6122371;23;20033;-82
2024/03/11 08:31:17;;;;;;;1999.90;999.90;;;;;;;;;;6122776;23;20018;-82
2024/03/11 08:33:43;;;;;;;1999.90;999.90;;;;;;;;;;6122269;23;20018;-82
2024/03/11 08:36:10;;;;;;;1999.90;999.90;;;;;;;;;;6123870;23;20026;-82
2024/03/11 08:38:36;;;;;;;1999.90;999.90;;;;;;;;;;6127621;23;20026;-82
2024/03/11 08:41:05;;;;;;;1999.90;999.90;;;;;;;;;;6127418;23;20081;-82
2024/03/11 08:43:33;;;;;;;1999.90;999.90;;;;;;;;;;6134582;23;20025;-83
2024/03/11 08:45:59;;;;;;;1999.90;999.90;;;;;;;;;;6124727;23;20125;-82
2024/03/11 08:48:26;;;;;;;1999.90;999.90;;;;;;;;;;6122216;23;20030;-82
2024/03/11 08:50:53;;;;;;;1999.90;999.90;;;;;;;;;;6122158;23;20077;-81
2024/03/11 08:53:19;;;;;;;1999.90;999.90;;;;;;;;;;6121803;23;20026;-82
2024/03/11 08:55:48;;;;;;;1999.90;999.90;;;;;;;;;;6122547;23;20022;-82
2024/03/11 08:58:16;;;;;;;1999.90;999.90;;;;;;;;;;6122094;23;20026;-82
2024/03/11 09:00:43;;;;;;;1999.90;999.90;;;;;;;;;;6122428;23;20022;-81
2024/03/11 09:03:11;;;;;;;1999.90;999.90;;;;;;;;;;6122202;23;20032;-84
2024/03/11 09:05:40;;;;;;;1999.90;999.90;;;;;;;;;;6122109;23;20071;-84
2024/03/11 09:08:06;;;;;;;1999.90;999.90;;;;;;;;;;6122127;23;20096;-84
2024/03/11 09:10:33;;;;;;;1999.90;999.90;;;;;;;;;;6122672;23;20025;-84
2024/03/11 09:12:59;;;;;;;1999.90;999.90;;;;;;;;;;6122000;23;20392;-84
2024/03/11 09:15:26;;;;;;;1999.90;999.90;;;;;;;;;;6122653;23;20022;-84
2024/03/11 09:17:54;;;;;;;1999.90;999.90;;;;;;;;;;6122018;23;20028;-84
2024/03/11 09:20:22;;;;;;;1999.90;999.90;;;;;;;;;;6122076;23;20030;-84
2024/03/11 09:22:49;;;;;;;1999.90;999.90;;;;;;;;;;6122592;23;20018;-83
2024/03/11 09:25:18;;;;;;;1999.90;999.90;;;;;;;;;;6122939;23;20025;-83
2024/03/11 09:27:47;;;;;;;1999.90;999.90;;;;;;;;;;6122191;23;20049;-83
2024/03/11 09:30:14;;;;;;;1999.90;999.90;;;;;;;;;;6123438;23;20032;-83
2024/03/11 09:32:43;;;;;;;1999.90;999.90;;;;;;;;;;6122690;23;20032;-84
2024/03/11 09:35:12;;;;;;;1999.90;999.90;;;;;;;;;;6122609;23;20026;-85
2024/03/11 09:37:39;;;;;;;1999.90;999.90;;;;;;;;;;6122679;23;20100;-83
2024/03/11 09:40:09;;;;;;;1999.90;999.90;;;;;;;;;;6122187;23;20061;-84
2024/03/11 09:42:37;;;;;;;1999.90;999.90;;;;;;;;;;6121849;23;20028;-84
2024/03/11 09:45:07;;;;;;;1999.90;999.90;;;;;;;;;;6121900;23;20417;-84
2024/03/11 09:47:33;;;;;;;1999.90;999.90;;;;;;;;;;6122440;23;20018;-83
2024/03/11 09:50:00;;;;;;;1999.90;999.90;;;;;;;;;;6123662;23;20057;-83
2024/03/11 09:52:29;;;;;;;1999.90;999.90;;;;;;;;;;6122579;23;20022;-84
2024/03/11 09:54:58;;;;;;;1999.90;999.90;;;;;;;;;;6121421;23;20267;-84
2024/03/11 09:57:26;;;;;;;1999.90;999.90;;;;;;;;;;6122037;23;20026;-84
2024/03/11 09:59:54;;;;;;;1999.90;999.90;;;;;;;;;;6122009;23;20033;-82
2024/03/11 10:02:23;;;;;;;1999.90;999.90;;;;;;;;;;6122538;23;20446;-84
2024/03/11 10:04:53;;;;;;;1999.90;999.90;;;;;;;;;;6122982;23;20344;-83
2024/03/11 10:07:23;;;;;;;1999.90;999.90;;;;;;;;;;6122058;23;20056;-84
2024/03/11 10:09:51;;;;;;;1999.90;999.90;;;;;;;;;;6122460;23;20468;-84
2024/03/11 10:12:21;;;;;;;1999.90;999.90;;;;;;;;;;6122012;23;20069;-84
2024/03/11 10:14:50;;;;;;;1999.90;999.90;;;;;;;;;;6121936;23;20122;-83
2024/03/11 10:17:20;;;;;;;1999.90;999.90;;;;;;;;;;6122340;23;20069;-84
2024/03/11 10:19:47;;;;;;;1999.90;999.90;;;;;;;;;;6121267;23;20049;-83
2024/03/11 10:22:22;;;;;;;1999.90;999.90;;;;;;;;;;6122435;23;20513;-84
2024/03/11 10:24:52;;;;;;;1999.90;999.90;;;;;;;;;;6122015;23;20021;-84
2024/03/11 10:27:19;;;;;;;1999.90;999.90;;;;;;;;;;6122896;23;20052;-84
2024/03/11 10:29:46;;;;;;;1999.90;999.90;;;;;;;;;;6121863;23;20483;-84
2024/03/11 10:32:33;;;;;;;1999.90;999.90;;;;;;;;;;6122717;23;20075;-84
2024/03/11 10:35:00;;;;;;;1999.90;999.90;;;;;;;;;;6122858;23;20367;-84
2024/03/11 10:37:26;;;;;;;1999.90;999.90;;;;;;;;;;6122425;23;20029;-84
2024/03/11 10:39:59;;;;;;;1999.90;999.90;;;;;;;;;;6123339;23;20044;-84
2024/03/11 10:42:28;;;;;;;1999.90;999.90;;;;;;;;;;6122485;23;20022;-84
2024/03/11 10:44:55;;;;;;;1999.90;999.90;;;;;;;;;;6121617;23;20022;-84
2024/03/11 10:47:23;;;;;;;1999.90;999.90;;;;;;;;;;6122222;23;20088;-84
2024/03/11 10:49:53;;;;;;;1999.90;999.90;;;;;;;;;;6121477;23;20028;-84
2024/03/11 10:52:21;;;;;;;1999.90;999.90;;;;;;;;;;6121927;23;20049;-84
2024/03/11 10:54:50;;;;;;;1999.90;999.90;;;;;;;;;;6122084;23;20032;-84
2024/03/11 10:57:30;;;;;;;1999.90;999.90;;;;;;;;;;6122091;23;20018;-84
2024/03/11 10:59:58;;;;;;;1999.90;999.90;;;;;;;;;;6121948;23;20018;-84
2024/03/11 11:02:26;;;;;;;1999.90;999.90;;;;;;;;;;6121667;23;20028;-84
2024/03/11 11:04:53;;;;;;;1999.90;999.90;;;;;;;;;;6121147;23;20506;-83
2024/03/11 11:07:29;;;;;;;1999.90;999.90;;;;;;;;;;6121640;23;20026;-83
2024/03/11 11:10:01;;;;;;;1999.90;999.90;;;;;;;;;;6121672;23;20085;-83
2024/03/11 11:12:30;;;;;;;1999.90;999.90;;;;;;;;;;6121218;23;20410;-84
2024/03/11 11:14:58;;;;;;;1999.90;999.90;;;;;;;;;;6121422;23;20509;-83
2024/03/11 11:17:28;;;;;;;1999.90;999.90;;;;;;;;;;6121209;23;20054;-83
2024/03/11 11:19:56;;;;;;;1999.90;999.90;;;;;;;;;;6120960;23;20022;-84
2024/03/11 11:22:25;;;;;;;1999.90;999.90;;;;;;;;;;6121190;23;20071;-84
2024/03/11 11:24:52;;;;;;;1999.90;999.90;;;;;;;;;;6121265;23;20084;-85
2024/03/11 11:27:24;;;;;;;1999.90;999.90;;;;;;;;;;6121814;23;20396;-83
2024/03/11 11:29:54;;;;;;;1999.90;999.90;;;;;;;;;;6120981;23;20022;-85
2024/03/11 11:32:31;;;;;;;1999.90;999.90;;;;;;;;;;6120729;23;20022;-84
2024/03/11 11:34:58;;;;;;;1999.90;999.90;;;;;;;;;;6121394;23;20022;-84
2024/03/11 11:37:36;;;;;;;1999.90;999.90;;;;;;;;;;6121151;23;20026;-84
2024/03/11 11:40:32;;;;;;;1999.90;999.90;;;;;;;;;;6121028;23;20030;-84
2024/03/11 11:42:59;;;;;;;1999.90;999.90;;;;;;;;;;6122770;23;20026;-84
2024/03/11 11:45:50;;;;;;;1999.90;999.90;;;;;;;;;;6122906;23;20018;-84
2024/03/11 11:48:21;;;;;;;1999.90;999.90;;;;;;;;;;6111221;23;20053;-84
2024/03/11 11:50:47;;;;;;;1999.90;999.90;;;;;;;;;;6123604;23;20030;-83
2024/03/11 11:53:15;;;;;;;1999.90;999.90;;;;;;;;;;6122972;23;20028;-84
2024/03/11 11:55:50;;;;;;;1999.90;999.90;;;;;;;;;;6122685;23;20069;-84
2024/03/11 11:58:17;;;;;;;1999.90;999.90;;;;;;;;;;6123004;23;20562;-83
2024/03/11 12:00:44;;;;;;;1999.90;999.90;;;;;;;;;;6122959;23;20021;-83
2024/03/11 12:03:27;;;;;;;1999.90;999.90;;;;;;;;;;6123287;23;20018;-83
2024/03/11 12:06:04;;;;;;;1999.90;999.90;;;;;;;;;;6123059;23;20235;-83
2024/03/11 12:08:32;;;;;;;1999.90;999.90;;;;;;;;;;6122933;23;20026;-84
2024/03/11 12:11:15;;;;;;;1999.90;999.90;;;;;;;;;;6122208;23;20037;-82
2024/03/11 12:13:42;;;;;;;1999.90;999.90;;;;;;;;;;6122352;23;20061;-83
2024/03/11 12:16:11;;;;;;;1999.90;999.90;;;;;;;;;;6121623;23;20432;-83
2024/03/11 12:18:42;;;;;;;1999.90;999.90;;;;;;;;;;6121704;23;20028;-83
2024/03/11 12:21:11;;;;;;;1999.90;999.90;;;;;;;;;;6122538;23;20403;-82
2024/03/11 12:23:38;;;;;;;1999.90;999.90;;;;;;;;;;6122314;23;20045;-82
2024/03/11 12:26:06;;;;;;;1999.90;999.90;;;;;;;;;;6122526;23;20045;-83
2024/03/11 12:28:33;;;;;;;1999.90;999.90;;;;;;;;;;6122370;23;20026;-84
2024/03/11 12:31:00;;;;;;;1999.90;999.90;;;;;;;;;;6122229;23;20053;-83
2024/03/11 12:33:28;;;;;;;1999.90;999.90;;;;;;;;;;6122321;23;20044;-83
2024/03/11 12:35:58;;;;;;;1999.90;999.90;;;;;;;;;;6122151;23;20028;-82
2024/03/11 12:38:25;;;;;;;1999.90;999.90;;;;;;;;;;6122167;23;20030;-82
2024/03/11 12:40:53;;;;;;;1999.90;999.90;;;;;;;;;;6122374;23;20079;-83
2024/03/11 12:43:21;;;;;;;1999.90;999.90;;;;;;;;;;6121375;23;20520;-83
2024/03/11 12:45:51;;;;;;;1999.90;999.90;;;;;;;;;;6121572;23;20461;-82
2024/03/11 12:48:18;;;;;;;1999.90;999.90;;;;;;;;;;6122134;23;20026;-83
2024/03/11 12:50:46;;;;;;;1999.90;999.90;;;;;;;;;;6122112;23;20028;-83
2024/03/11 12:53:16;;;;;;;1999.90;999.90;;;;;;;;;;6121648;23;20081;-82
2024/03/11 12:55:43;;;;;;;1999.90;999.90;;;;;;;;;;6121915;23;20045;-82
2024/03/11 12:58:15;;;;;;;1999.90;999.90;;;;;;;;;;6122352;23;20022;-83
2024/03/11 13:00:41;;;;;;;1999.90;999.90;;;;;;;;;;6121902;23;20022;-83
2024/03/11 13:03:11;;;;;;;1999.90;999.90;;;;;;;;;;6121045;23;20022;-82
2024/03/11 13:05:40;;;;;;;1999.90;999.90;;;;;;;;;;6121947;23;20029;-83
2024/03/11 13:08:09;;;;;;;1999.90;999.90;;;;;;;;;;6122054;23;20060;-82
2024/03/11 13:10:37;;;;;;;1999.90;999.90;;;;;;;;;;6122324;23;20061;-82
2024/03/11 13:13:16;;;;;;;1999.90;999.90;;;;;;;;;;6122473;23;20022;-82
2024/03/11 13:15:43;;;;;;;1999.90;999.90;;;;;;;;;;6144625;23;20041;-83
2024/03/11 13:18:09;;;;;;;1999.90;999.90;;;;;;;;;;6150488;23;20014;-83
2024/03/11 13:20:38;;;;;;;1999.90;999.90;;;;;;;;;;6136892;23;20397;-82
2024/03/11 13:23:06;;;;;;;1999.90;999.90;;;;;;;;;;6121911;23;20022;-83
2024/03/11 13:25:34;;;;;;;1999.90;999.90;;;;;;;;;;6122566;23;20069;-83
2024/03/11 13:28:05;;;;;;;1999.90;999.90;;;;;;;;;;6123436;23;20045;-83
2024/03/11 13:30:34;;;;;;;1999.90;999.90;;;;;;;;;;6123473;23;20026;-82
2024/03/11 13:33:00;;;;;;;1999.90;999.90;;;;;;;;;;6123604;23;20097;-83
2024/03/11 13:35:27;;;;;;;1999.90;999.90;;;;;;;;;;6123802;23;20046;-84
2024/03/11 13:37:54;;;;;;;1999.90;999.90;;;;;;;;;;6123302;23;20025;-83
2024/03/11 13:40:20;;;;;;;1999.90;999.90;;;;;;;;;;6123499;23;20022;-83
2024/03/11 13:42:47;;;;;;;1999.90;999.90;;;;;;;;;;6123318;23;20053;-83
2024/03/11 13:45:15;;;;;;;1999.90;999.90;;;;;;;;;;6123008;23;20354;-83
2024/03/11 13:47:41;;;;;;;1999.90;999.90;;;;;;;;;;6123552;23;20398;-83